sensor_id;sensor_type;location;lat;lon;timestamp;pressure;altitude;pressure_sealevel;temperature;humidity
64095;BME280;50353;51.420;5.682;2023-02-26T00:00:45;101530.78;;;0.52;71.81
64095;BME280;50353;51.420;5.682;2023-02-26T00:03:10;101533.34;;;0.55;71.71
64095;BME280;50353;51.420;5.682;2023-02-26T00:05:36;101532.38;;;0.70;72.52
64095;BME280;50353;51.420;5.682;2023-02-26T00:08:01;101539.13;;;0.93;72.30
64095;BME280;50353;51.420;5.682;2023-02-26T00:10:29;101541.72;;;0.93;71.92
64095;BME280;50353;51.420;5.682;2023-02-26T00:12:55;101538.09;;;1.09;71.75
64095;BME280;50353;51.420;5.682;2023-02-26T00:15:21;101543.41;;;0.98;72.10
64095;BME280;50353;51.420;5.682;2023-02-26T00:17:53;101540.00;;;0.90;71.68
64095;BME280;50353;51.420;5.682;2023-02-26T00:20:20;101550.84;;;0.33;72.12
64095;BME280;50353;51.420;5.682;2023-02-26T00:22:46;101550.81;;;0.38;73.26
64095;BME280;50353;51.420;5.682;2023-02-26T00:25:11;101548.84;;;0.71;72.30
64095;BME280;50353;51.420;5.682;2023-02-26T00:27:37;101561.03;;;0.62;73.51
64095;BME280;50353;51.420;5.682;2023-02-26T00:30:04;101557.53;;;0.71;73.24
64095;BME280;50353;51.420;5.682;2023-02-26T00:32:30;101566.16;;;0.75;72.92
64095;BME280;50353;51.420;5.682;2023-02-26T00:34:56;101565.34;;;0.70;72.97
64095;BME280;50353;51.420;5.682;2023-02-26T00:42:36;101573.06;;;0.82;73.75
64095;BME280;50353;51.420;5.682;2023-02-26T00:45:02;101574.81;;;0.78;73.88
64095;BME280;50353;51.420;5.682;2023-02-26T00:47:33;101563.63;;;0.67;74.02
64095;BME280;50353;51.420;5.682;2023-02-26T00:50:16;101576.47;;;0.86;73.79
64095;BME280;50353;51.420;5.682;2023-02-26T00:52:52;101571.50;;;0.55;73.78
64095;BME280;50353;51.420;5.682;2023-02-26T00:55:20;101569.72;;;0.60;74.66
64095;BME280;50353;51.420;5.682;2023-02-26T00:57:45;101576.59;;;0.72;74.60
64095;BME280;50353;51.420;5.682;2023-02-26T01:00:11;101582.63;;;0.77;74.81
64095;BME280;50353;51.420;5.682;2023-02-26T01:02:38;101576.63;;;0.69;74.63
64095;BME280;50353;51.420;5.682;2023-02-26T01:05:04;101580.94;;;0.66;75.13
64095;BME280;50353;51.420;5.682;2023-02-26T01:07:37;101583.53;;;0.73;75.00
64095;BME280;50353;51.420;5.682;2023-02-26T01:10:04;101588.66;;;0.79;75.14
64095;BME280;50353;51.420;5.682;2023-02-26T01:12:30;101588.75;;;0.66;75.68
64095;BME280;50353;51.420;5.682;2023-02-26T01:14:55;101594.03;;;0.54;75.89
64095;BME280;50353;51.420;5.682;2023-02-26T01:17:27;101588.72;;;0.73;75.84
64095;BME280;50353;51.420;5.682;2023-02-26T01:20:05;101587.00;;;0.72;76.13
64095;BME280;50353;51.420;5.682;2023-02-26T01:22:40;101592.38;;;0.47;77.39
64095;BME280;50353;51.420;5.682;2023-02-26T01:25:10;101587.09;;;0.53;77.20
64095;BME280;50353;51.420;5.682;2023-02-26T01:27:36;101592.25;;;0.62;77.28
64095;BME280;50353;51.420;5.682;2023-02-26T01:30:04;101599.22;;;0.57;77.45
64095;BME280;50353;51.420;5.682;2023-02-26T01:32:41;101595.66;;;0.74;76.87
64095;BME280;50353;51.420;5.682;2023-02-26T01:35:15;101578.56;;;0.37;78.67
64095;BME280;50353;51.420;5.682;2023-02-26T01:43:35;101588.72;;;0.73;77.63
64095;BME280;50353;51.420;5.682;2023-02-26T01:46:33;101600.03;;;0.67;77.91
64095;BME280;50353;51.420;5.682;2023-02-26T01:49:01;101609.47;;;0.85;77.41
64095;BME280;50353;51.420;5.682;2023-02-26T01:54:06;101624.38;;;0.58;78.13
64095;BME280;50353;51.420;5.682;2023-02-26T01:56:31;101618.41;;;0.38;80.19
64095;BME280;50353;51.420;5.682;2023-02-26T01:58:57;101626.25;;;0.30;80.00
64095;BME280;50353;51.420;5.682;2023-02-26T02:01:23;101629.69;;;0.41;80.20
64095;BME280;50353;51.420;5.682;2023-02-26T02:03:48;101634.06;;;0.31;80.22
64095;BME280;50353;51.420;5.682;2023-02-26T02:06:20;101628.94;;;0.13;80.67
64095;BME280;50353;51.420;5.682;2023-02-26T02:08:46;101633.13;;;0.46;80.11
64095;BME280;50353;51.420;5.682;2023-02-26T02:11:12;101643.56;;;0.34;80.41
64095;BME280;50353;51.420;5.682;2023-02-26T02:19:31;101650.44;;;0.47;79.26
64095;BME280;50353;51.420;5.682;2023-02-26T02:22:39;101659.16;;;0.39;79.53
64095;BME280;50353;51.420;5.682;2023-02-26T02:34:01;101655.69;;;0.37;79.58
64095;BME280;50353;51.420;5.682;2023-02-26T02:36:35;101653.91;;;0.45;79.07
64095;BME280;50353;51.420;5.682;2023-02-26T02:39:14;101654.88;;;0.28;79.53
64095;BME280;50353;51.420;5.682;2023-02-26T02:41:47;101657.50;;;0.21;80.32
64095;BME280;50353;51.420;5.682;2023-02-26T02:44:16;101656.50;;;0.45;79.18
64095;BME280;50353;51.420;5.682;2023-02-26T02:46:45;101656.59;;;0.36;79.33
64095;BME280;50353;51.420;5.682;2023-02-26T02:52:13;101664.41;;;0.22;79.05
64095;BME280;50353;51.420;5.682;2023-02-26T02:54:57;101653.16;;;0.27;78.70
64095;BME280;50353;51.420;5.682;2023-02-26T02:57:51;101667.94;;;0.13;79.24
64095;BME280;50353;51.420;5.682;2023-02-26T03:00:19;101676.56;;;0.24;78.64
64095;BME280;50353;51.420;5.682;2023-02-26T03:02:56;101681.91;;;-0.30;81.23
64095;BME280;50353;51.420;5.682;2023-02-26T03:05:24;101678.34;;;0.08;79.86
64095;BME280;50353;51.420;5.682;2023-02-26T03:07:54;101677.50;;;0.02;80.81
64095;BME280;50353;51.420;5.682;2023-02-26T03:10:20;101689.56;;;0.24;80.23
64095;BME280;50353;51.420;5.682;2023-02-26T03:12:46;101693.94;;;0.05;80.71
64095;BME280;50353;51.420;5.682;2023-02-26T03:15:13;101686.16;;;0.01;79.97
64095;BME280;50353;51.420;5.682;2023-02-26T03:17:45;101684.38;;;0.15;79.99
64095;BME280;50353;51.420;5.682;2023-02-26T03:20:33;101695.66;;;0.09;79.93
64095;BME280;50353;51.420;5.682;2023-02-26T03:23:21;101698.28;;;0.08;79.52
64095;BME280;50353;51.420;5.682;2023-02-26T03:25:53;101680.94;;;0.10;78.97
64095;BME280;50353;51.420;5.682;2023-02-26T03:28:34;101711.28;;;0.12;78.79
64095;BME280;50353;51.420;5.682;2023-02-26T03:31:17;101706.91;;;0.14;79.15
64095;BME280;50353;51.420;5.682;2023-02-26T03:34:12;101706.91;;;0.22;78.11
64095;BME280;50353;51.420;5.682;2023-02-26T03:36:45;101713.88;;;0.06;78.75
64095;BME280;50353;51.420;5.682;2023-02-26T03:39:19;101711.22;;;0.29;77.72
64095;BME280;50353;51.420;5.682;2023-02-26T03:44:41;101729.50;;;-0.26;78.86
64095;BME280;50353;51.420;5.682;2023-02-26T03:47:11;101735.56;;;-0.07;79.27
64095;BME280;50353;51.420;5.682;2023-02-26T03:49:44;101726.06;;;-0.35;79.50
64095;BME280;50353;51.420;5.682;2023-02-26T03:52:13;101737.25;;;0.19;78.58
64095;BME280;50353;51.420;5.682;2023-02-26T03:54:54;101742.47;;;0.06;77.76
64095;BME280;50353;51.420;5.682;2023-02-26T03:57:21;101744.25;;;-0.25;79.06
64095;BME280;50353;51.420;5.682;2023-02-26T03:59:46;101752.91;;;-0.31;79.16
64095;BME280;50353;51.420;5.682;2023-02-26T04:02:18;101755.50;;;-0.26;79.20
64095;BME280;50353;51.420;5.682;2023-02-26T04:04:52;101754.63;;;-0.13;79.12
64095;BME280;50353;51.420;5.682;2023-02-26T04:07:20;101754.63;;;-0.36;79.30
64095;BME280;50353;51.420;5.682;2023-02-26T04:09:48;101765.03;;;-0.35;79.70
64095;BME280;50353;51.420;5.682;2023-02-26T04:12:14;101763.31;;;-0.34;79.49
64095;BME280;50353;51.420;5.682;2023-02-26T04:14:40;101766.75;;;-0.44;80.01
64095;BME280;50353;51.420;5.682;2023-02-26T04:17:05;101768.50;;;-0.43;79.39
64095;BME280;50353;51.420;5.682;2023-02-26T04:19:31;101771.09;;;-0.51;79.93
64095;BME280;50353;51.420;5.682;2023-02-26T04:21:57;101766.75;;;-0.21;78.82
64095;BME280;50353;51.420;5.682;2023-02-26T04:24:22;101767.63;;;-0.22;78.42
64095;BME280;50353;51.420;5.682;2023-02-26T04:26:48;101776.28;;;-0.23;78.68
64095;BME280;50353;51.420;5.682;2023-02-26T04:29:13;101771.94;;;-0.51;79.45
64095;BME280;50353;51.420;5.682;2023-02-26T04:31:39;101771.91;;;-0.63;79.42
64095;BME280;50353;51.420;5.682;2023-02-26T04:34:04;101769.34;;;-0.58;79.44
64095;BME280;50353;51.420;5.682;2023-02-26T04:36:30;101772.78;;;-0.56;79.23
64095;BME280;50353;51.420;5.682;2023-02-26T04:38:55;101783.19;;;-0.65;79.19
64095;BME280;50353;51.420;5.682;2023-02-26T04:41:20;101784.09;;;-0.34;78.69
64095;BME280;50353;51.420;5.682;2023-02-26T04:43:46;101788.41;;;-0.50;78.73
64095;BME280;50353;51.420;5.682;2023-02-26T04:46:11;101788.38;;;-0.56;78.85
64095;BME280;50353;51.420;5.682;2023-02-26T04:48:36;101786.66;;;-0.49;78.56
64095;BME280;50353;51.420;5.682;2023-02-26T04:51:01;101804.00;;;-0.36;78.57
64095;BME280;50353;51.420;5.682;2023-02-26T04:53:27;101801.38;;;-0.56;78.92
64095;BME280;50353;51.420;5.682;2023-02-26T04:55:52;101805.72;;;-0.33;78.30
64095;BME280;50353;51.420;5.682;2023-02-26T04:58:17;101814.38;;;-0.22;77.16
64095;BME280;50353;51.420;5.682;2023-02-26T05:00:47;101814.41;;;-0.42;78.21
64095;BME280;50353;51.420;5.682;2023-02-26T05:03:12;101823.91;;;-0.21;77.42
64095;BME280;50353;51.420;5.682;2023-02-26T05:05:38;101817.88;;;-0.34;77.37
64095;BME280;50353;51.420;5.682;2023-02-26T05:08:03;101829.97;;;-0.52;78.34
64095;BME280;50353;51.420;5.682;2023-02-26T05:10:28;101822.19;;;-0.28;77.40
64095;BME280;50353;51.420;5.682;2023-02-26T05:12:54;101825.63;;;-0.39;77.88
64095;BME280;50353;51.420;5.682;2023-02-26T05:15:19;101832.56;;;-0.38;77.90
64095;BME280;50353;51.420;5.682;2023-02-26T05:17:45;101824.78;;;-0.36;77.38
64095;BME280;50353;51.420;5.682;2023-02-26T05:20:10;101829.09;;;-0.49;77.93
64095;BME280;50353;51.420;5.682;2023-02-26T05:22:37;101823.03;;;-0.54;77.78
64095;BME280;50353;51.420;5.682;2023-02-26T05:25:02;101835.16;;;-0.45;78.46
64095;BME280;50353;51.420;5.682;2023-02-26T05:27:29;101835.06;;;-0.78;78.84
64095;BME280;50353;51.420;5.682;2023-02-26T05:29:54;101836.00;;;-0.54;78.20
64095;BME280;50353;51.420;5.682;2023-02-26T05:32:19;101842.97;;;-0.41;78.45
64095;BME280;50353;51.420;5.682;2023-02-26T05:34:45;101846.41;;;-0.51;78.02
64095;BME280;50353;51.420;5.682;2023-02-26T05:37:10;101842.06;;;-0.51;77.99
64095;BME280;50353;51.420;5.682;2023-02-26T05:39:35;101845.50;;;-0.56;78.17
64095;BME280;50353;51.420;5.682;2023-02-26T05:42:01;101846.31;;;-0.82;78.58
64095;BME280;50353;51.420;5.682;2023-02-26T05:44:26;101848.09;;;-0.56;78.18
64095;BME280;50353;51.420;5.682;2023-02-26T05:46:51;101852.41;;;-0.68;77.87
64095;BME280;50353;51.420;5.682;2023-02-26T05:49:17;101851.53;;;-0.71;78.42
64095;BME280;50353;51.420;5.682;2023-02-26T05:51:42;101850.69;;;-0.58;77.44
64095;BME280;50353;51.420;5.682;2023-02-26T05:54:08;101852.44;;;-0.57;77.37
64095;BME280;50353;51.420;5.682;2023-02-26T05:56:34;101862.78;;;-0.74;77.08
64095;BME280;50353;51.420;5.682;2023-02-26T05:59:00;101862.75;;;-0.77;77.79
64095;BME280;50353;51.420;5.682;2023-02-26T06:01:25;101864.50;;;-0.73;77.40
64095;BME280;50353;51.420;5.682;2023-02-26T06:03:50;101874.84;;;-0.85;77.69
64095;BME280;50353;51.420;5.682;2023-02-26T06:06:16;101880.13;;;-0.65;76.25
64095;BME280;50353;51.420;5.682;2023-02-26T06:08:45;101884.47;;;-0.56;76.34
64095;BME280;50353;51.420;5.682;2023-02-26T06:11:10;101883.56;;;-0.63;76.50
64095;BME280;50353;51.420;5.682;2023-02-26T06:13:36;101893.00;;;-0.88;76.71
64095;BME280;50353;51.420;5.682;2023-02-26T06:16:02;101907.78;;;-0.72;76.10
64095;BME280;50353;51.420;5.682;2023-02-26T06:18:27;101903.44;;;-0.70;76.18
64095;BME280;50353;51.420;5.682;2023-02-26T06:20:52;101906.03;;;-0.73;76.72
64095;BME280;50353;51.420;5.682;2023-02-26T06:23:18;101915.63;;;-0.59;75.70
64095;BME280;50353;51.420;5.682;2023-02-26T06:25:43;101914.69;;;-0.74;75.94
64095;BME280;50353;51.420;5.682;2023-02-26T06:28:09;101919.88;;;-0.84;76.20
64095;BME280;50353;51.420;5.682;2023-02-26T06:30:35;101922.47;;;-0.83;75.57
64095;BME280;50353;51.420;5.682;2023-02-26T06:33:00;101930.28;;;-0.74;75.43
64095;BME280;50353;51.420;5.682;2023-02-26T06:35:26;101930.19;;;-0.92;76.57
64095;BME280;50353;51.420;5.682;2023-02-26T06:37:54;101934.59;;;-0.77;75.61
64095;BME280;50353;51.420;5.682;2023-02-26T06:40:19;101944.03;;;-0.95;75.90
64095;BME280;50353;51.420;5.682;2023-02-26T06:42:45;101957.84;;;-0.99;76.36
64095;BME280;50353;51.420;5.682;2023-02-26T06:45:10;101956.88;;;-1.13;77.61
64095;BME280;50353;51.420;5.682;2023-02-26T06:47:35;101951.06;;;-0.69;75.50
64095;BME280;50353;51.420;5.682;2023-02-26T06:50:01;101954.56;;;-0.62;75.22
64095;BME280;50353;51.420;5.682;2023-02-26T06:52:28;101971.06;;;-0.46;74.09
64095;BME280;50353;51.420;5.682;2023-02-26T06:54:53;101971.06;;;-0.53;74.53
64095;BME280;50353;51.420;5.682;2023-02-26T06:57:19;101970.25;;;-0.38;73.86
64095;BME280;50353;51.420;5.682;2023-02-26T06:59:44;101973.66;;;-0.56;74.20
64095;BME280;50353;51.420;5.682;2023-02-26T07:02:16;101979.78;;;-0.32;73.49
64095;BME280;50353;51.420;5.682;2023-02-26T07:04:41;101986.75;;;-0.17;73.15
64095;BME280;50353;51.420;5.682;2023-02-26T07:07:07;101992.03;;;0.15;72.81
64095;BME280;50353;51.420;5.682;2023-02-26T07:09:32;101999.81;;;0.05;72.16
64095;BME280;50353;51.420;5.682;2023-02-26T07:11:57;101992.91;;;0.30;72.18
64095;BME280;50353;51.420;5.682;2023-02-26T07:14:23;102002.44;;;0.22;72.07
64095;BME280;50353;51.420;5.682;2023-02-26T07:16:48;102004.19;;;0.20;71.86
64095;BME280;50353;51.420;5.682;2023-02-26T07:19:13;102006.78;;;0.21;71.98
64095;BME280;50353;51.420;5.682;2023-02-26T07:21:39;102007.66;;;0.40;71.08
64095;BME280;50353;51.420;5.682;2023-02-26T07:24:04;102015.47;;;0.26;72.15
64095;BME280;50353;51.420;5.682;2023-02-26T07:26:30;102014.56;;;0.13;72.43
64095;BME280;50353;51.420;5.682;2023-02-26T07:28:55;102020.69;;;0.42;71.48
64095;BME280;50353;51.420;5.682;2023-02-26T07:31:20;102022.44;;;0.77;70.63
64095;BME280;50353;51.420;5.682;2023-02-26T07:33:46;102025.91;;;0.60;70.52
64095;BME280;50353;51.420;5.682;2023-02-26T07:36:11;102034.56;;;0.44;71.28
64095;BME280;50353;51.420;5.682;2023-02-26T07:38:36;102044.13;;;0.87;70.88
64095;BME280;50353;51.420;5.682;2023-02-26T07:41:02;102046.72;;;0.73;71.42
64095;BME280;50353;51.420;5.682;2023-02-26T07:43:27;102036.28;;;0.39;71.69
64095;BME280;50353;51.420;5.682;2023-02-26T07:45:52;102045.84;;;0.54;71.24
64095;BME280;50353;51.420;5.682;2023-02-26T07:48:18;102052.78;;;0.82;71.18
64095;BME280;50353;51.420;5.682;2023-02-26T07:50:44;102049.34;;;0.83;70.15
64095;BME280;50353;51.420;5.682;2023-02-26T07:53:09;102052.81;;;0.90;70.84
64095;BME280;50353;51.420;5.682;2023-02-26T07:55:34;102055.38;;;1.04;70.58
64095;BME280;50353;51.420;5.682;2023-02-26T07:58:00;102062.34;;;0.85;70.67
64095;BME280;50353;51.420;5.682;2023-02-26T08:00:25;102057.97;;;1.10;70.47
64095;BME280;50353;51.420;5.682;2023-02-26T08:02:50;102064.06;;;1.05;69.36
64095;BME280;50353;51.420;5.682;2023-02-26T08:05:16;102071.00;;;1.24;69.80
64095;BME280;50353;51.420;5.682;2023-02-26T08:07:41;102070.09;;;1.33;69.53
64095;BME280;50353;51.420;5.682;2023-02-26T08:10:07;102072.69;;;1.51;68.96
64095;BME280;50353;51.420;5.682;2023-02-26T08:12:33;102079.63;;;1.54;69.28
64095;BME280;50353;51.420;5.682;2023-02-26T08:14:58;102079.66;;;1.35;69.51
64095;BME280;50353;51.420;5.682;2023-02-26T08:17:24;102076.97;;;1.69;68.32
64095;BME280;50353;51.420;5.682;2023-02-26T08:19:49;102083.06;;;1.61;68.85
64095;BME280;50353;51.420;5.682;2023-02-26T08:22:14;102075.28;;;1.53;68.65
64095;BME280;50353;51.420;5.682;2023-02-26T08:24:40;102078.59;;;1.92;67.61
64095;BME280;50353;51.420;5.682;2023-02-26T08:27:05;102076.75;;;2.17;67.58
64095;BME280;50353;51.420;5.682;2023-02-26T08:29:31;102086.44;;;1.95;67.33
64095;BME280;50353;51.420;5.682;2023-02-26T08:31:56;102094.31;;;1.78;66.88
64095;BME280;50353;51.420;5.682;2023-02-26T08:34:21;102083.63;;;2.32;67.34
64095;BME280;50353;51.420;5.682;2023-02-26T08:36:47;102090.53;;;2.40;66.92
64095;BME280;50353;51.420;5.682;2023-02-26T08:39:12;102085.19;;;2.66;65.54
64095;BME280;50353;51.420;5.682;2023-02-26T08:41:37;102096.63;;;2.42;67.00
64095;BME280;50353;51.420;5.682;2023-02-26T08:44:03;102101.81;;;2.48;67.79
64095;BME280;50353;51.420;5.682;2023-02-26T08:46:28;102101.66;;;2.76;66.39
64095;BME280;50353;51.420;5.682;2023-02-26T08:48:53;102104.41;;;2.48;65.93
64095;BME280;50353;51.420;5.682;2023-02-26T08:51:22;102103.63;;;2.36;66.13
64095;BME280;50353;51.420;5.682;2023-02-26T08:53:47;102112.94;;;2.78;65.08
64095;BME280;50353;51.420;5.682;2023-02-26T08:56:14;102115.50;;;2.85;64.72
64095;BME280;50353;51.420;5.682;2023-02-26T08:58:40;102118.31;;;2.53;65.12
64095;BME280;50353;51.420;5.682;2023-02-26T09:01:05;102122.50;;;2.77;64.78
64095;BME280;50353;51.420;5.682;2023-02-26T09:03:31;102119.75;;;2.94;64.69
64095;BME280;50353;51.420;5.682;2023-02-26T09:05:56;102126.63;;;3.09;64.68
64095;BME280;50353;51.420;5.682;2023-02-26T09:08:21;102129.72;;;3.54;63.72
64095;BME280;50353;51.420;5.682;2023-02-26T09:10:47;102137.63;;;3.45;64.04
64095;BME280;50353;51.420;5.682;2023-02-26T09:13:13;102143.94;;;3.21;63.60
64095;BME280;50353;51.420;5.682;2023-02-26T09:15:38;102143.88;;;3.27;64.60
64095;BME280;50353;51.420;5.682;2023-02-26T09:18:04;102152.09;;;3.82;63.33
64095;BME280;50353;51.420;5.682;2023-02-26T09:20:29;102148.25;;;3.25;62.66
64095;BME280;50353;51.420;5.682;2023-02-26T09:22:55;102155.63;;;3.76;62.90
64095;BME280;50353;51.420;5.682;2023-02-26T09:25:20;102161.06;;;3.56;61.59
64095;BME280;50353;51.420;5.682;2023-02-26T09:27:45;102161.59;;;3.89;61.85
64095;BME280;50353;51.420;5.682;2023-02-26T09:30:11;102158.06;;;3.93;59.71
64095;BME280;50353;51.420;5.682;2023-02-26T09:32:37;102155.59;;;4.51;58.86
64095;BME280;50353;51.420;5.682;2023-02-26T09:35:03;102167.25;;;4.30;58.99
64095;BME280;50353;51.420;5.682;2023-02-26T09:37:29;102175.91;;;4.32;59.41
64095;BME280;50353;51.420;5.682;2023-02-26T09:39:54;102174.38;;;4.15;59.48
64095;BME280;50353;51.420;5.682;2023-02-26T09:44:56;102183.25;;;4.72;58.59
64095;BME280;50353;51.420;5.682;2023-02-26T09:47:34;102174.94;;;4.42;58.22
64095;BME280;50353;51.420;5.682;2023-02-26T09:50:23;102190.09;;;4.14;59.51
64095;BME280;50353;51.420;5.682;2023-02-26T09:52:58;102193.88;;;3.86;58.29
64095;BME280;50353;51.420;5.682;2023-02-26T09:58:33;102196.25;;;4.10;57.27
64095;BME280;50353;51.420;5.682;2023-02-26T10:04:15;102206.91;;;3.94;57.98
64095;BME280;50353;51.420;5.682;2023-02-26T10:09:46;102219.91;;;3.99;58.71
64095;BME280;50353;51.420;5.682;2023-02-26T10:12:18;102215.97;;;3.58;58.41
64095;BME280;50353;51.420;5.682;2023-02-26T10:15:19;102224.91;;;4.20;57.54
64095;BME280;50353;51.420;5.682;2023-02-26T10:18:07;102227.13;;;4.56;56.82
64095;BME280;50353;51.420;5.682;2023-02-26T10:25:46;102226.38;;;5.10;54.88
64095;BME280;50353;51.420;5.682;2023-02-26T10:31:04;102222.22;;;5.53;54.55
64095;BME280;50353;51.420;5.682;2023-02-26T10:33:45;102221.69;;;5.31;53.09
64095;BME280;50353;51.420;5.682;2023-02-26T10:36:39;102240.16;;;4.62;53.08
64095;BME280;50353;51.420;5.682;2023-02-26T10:39:36;102237.38;;;5.34;52.39
64095;BME280;50353;51.420;5.682;2023-02-26T10:42:10;102244.75;;;4.40;52.26
64095;BME280;50353;51.420;5.682;2023-02-26T10:49:54;102236.63;;;3.84;54.72
64095;BME280;50353;51.420;5.682;2023-02-26T10:52:24;102253.34;;;3.66;53.99
64095;BME280;50353;51.420;5.682;2023-02-26T10:55:07;102262.72;;;3.93;52.73
64095;BME280;50353;51.420;5.682;2023-02-26T10:57:44;102241.31;;;4.38;51.73
64095;BME280;50353;51.420;5.682;2023-02-26T11:00:17;102225.03;;;4.11;51.97
64095;BME280;50353;51.420;5.682;2023-02-26T11:02:46;102242.25;;;4.32;50.78
64095;BME280;50353;51.420;5.682;2023-02-26T11:05:19;102234.69;;;4.03;52.58
64095;BME280;50353;51.420;5.682;2023-02-26T11:07:47;102243.72;;;4.53;52.33
64095;BME280;50353;51.420;5.682;2023-02-26T11:10:16;102240.88;;;3.93;50.56
64095;BME280;50353;51.420;5.682;2023-02-26T11:12:42;102242.13;;;4.43;49.83
64095;BME280;50353;51.420;5.682;2023-02-26T11:15:14;102242.75;;;4.61;52.10
64095;BME280;50353;51.420;5.682;2023-02-26T11:17:39;102254.75;;;4.80;51.46
64095;BME280;50353;51.420;5.682;2023-02-26T11:20:36;102250.09;;;4.31;50.47
64095;BME280;50353;51.420;5.682;2023-02-26T11:23:04;102261.50;;;4.28;51.79
64095;BME280;50353;51.420;5.682;2023-02-26T11:25:31;102269.41;;;4.20;51.57
64095;BME280;50353;51.420;5.682;2023-02-26T11:28:03;102269.47;;;4.14;51.64
64095;BME280;50353;51.420;5.682;2023-02-26T11:30:31;102255.91;;;4.56;52.18
64095;BME280;50353;51.420;5.682;2023-02-26T11:32:58;102241.47;;;4.94;52.63
64095;BME280;50353;51.420;5.682;2023-02-26T11:35:28;102247.09;;;4.63;49.94
64095;BME280;50353;51.420;5.682;2023-02-26T11:37:57;102242.72;;;5.26;49.52
64095;BME280;50353;51.420;5.682;2023-02-26T11:40:37;102237.25;;;5.43;49.11
64095;BME280;50353;51.420;5.682;2023-02-26T11:43:15;102245.63;;;5.09;49.02
64095;BME280;50353;51.420;5.682;2023-02-26T11:45:44;102241.97;;;5.21;50.01
64095;BME280;50353;51.420;5.682;2023-02-26T11:48:36;102239.94;;;5.37;47.40
64095;BME280;50353;51.420;5.682;2023-02-26T11:51:04;102249.41;;;5.47;48.87
64095;BME280;50353;51.420;5.682;2023-02-26T11:53:31;102248.25;;;5.64;48.48
64095;BME280;50353;51.420;5.682;2023-02-26T11:56:01;102253.50;;;5.64;47.56
64095;BME280;50353;51.420;5.682;2023-02-26T11:58:33;102248.97;;;5.19;47.91
64095;BME280;50353;51.420;5.682;2023-02-26T12:01:00;102249.31;;;4.94;48.24
64095;BME280;50353;51.420;5.682;2023-02-26T12:03:26;102251.50;;;5.23;47.90
64095;BME280;50353;51.420;5.682;2023-02-26T12:05:56;102258.47;;;5.28;48.05
64095;BME280;50353;51.420;5.682;2023-02-26T12:08:37;102274.75;;;5.47;47.94
64095;BME280;50353;51.420;5.682;2023-02-26T12:16:40;102260.28;;;4.57;47.42
64095;BME280;50353;51.420;5.682;2023-02-26T12:22:38;102246.78;;;5.47;48.96
64095;BME280;50353;51.420;5.682;2023-02-26T12:25:55;102248.34;;;5.59;46.85
64095;BME280;50353;51.420;5.682;2023-02-26T12:31:24;102240.03;;;5.85;46.07
64095;BME280;50353;51.420;5.682;2023-02-26T12:39:45;102239.09;;;5.36;46.51
64095;BME280;50353;51.420;5.682;2023-02-26T12:42:35;102245.97;;;5.42;45.65
64095;BME280;50353;51.420;5.682;2023-02-26T12:45:38;102247.06;;;5.29;46.66
64095;BME280;50353;51.420;5.682;2023-02-26T12:48:33;102247.75;;;5.41;45.09
64095;BME280;50353;51.420;5.682;2023-02-26T12:54:20;102240.41;;;4.40;45.73
64095;BME280;50353;51.420;5.682;2023-02-26T13:02:46;102234.88;;;5.79;46.05
64095;BME280;50353;51.420;5.682;2023-02-26T13:05:26;102244.56;;;5.75;44.73
64095;BME280;50353;51.420;5.682;2023-02-26T13:20:53;102237.19;;;5.99;44.57
64095;BME280;50353;51.420;5.682;2023-02-26T13:23:22;102238.25;;;5.86;46.59
64095;BME280;50353;51.420;5.682;2023-02-26T13:25:53;102234.22;;;5.66;44.64
64095;BME280;50353;51.420;5.682;2023-02-26T13:28:33;102236.28;;;6.00;45.35
64095;BME280;50353;51.420;5.682;2023-02-26T13:31:06;102241.25;;;5.64;44.52
64095;BME280;50353;51.420;5.682;2023-02-26T13:33:33;102237.88;;;5.59;43.33
64095;BME280;50353;51.420;5.682;2023-02-26T13:36:00;102238.63;;;5.64;44.07
64095;BME280;50353;51.420;5.682;2023-02-26T13:41:15;102235.78;;;5.76;46.07
64095;BME280;50353;51.420;5.682;2023-02-26T13:44:16;102220.03;;;5.76;44.48
64095;BME280;50353;51.420;5.682;2023-02-26T13:50:28;102236.31;;;5.46;43.64
64095;BME280;50353;51.420;5.682;2023-02-26T13:55:48;102233.34;;;5.67;42.47
64095;BME280;50353;51.420;5.682;2023-02-26T14:00:58;102232.50;;;5.09;44.17
64095;BME280;50353;51.420;5.682;2023-02-26T14:03:31;102238.19;;;5.39;44.81
64095;BME280;50353;51.420;5.682;2023-02-26T14:06:25;102235.91;;;5.16;44.41
64095;BME280;50353;51.420;5.682;2023-02-26T14:09:02;102239.88;;;5.41;44.74
64095;BME280;50353;51.420;5.682;2023-02-26T14:11:33;102238.22;;;5.34;43.24
64095;BME280;50353;51.420;5.682;2023-02-26T14:14:29;102235.09;;;5.12;44.41
64095;BME280;50353;51.420;5.682;2023-02-26T14:16:56;102236.91;;;5.07;44.03
64095;BME280;50353;51.420;5.682;2023-02-26T14:27:40;102225.97;;;5.36;45.47
64095;BME280;50353;51.420;5.682;2023-02-26T14:35:32;102230.53;;;5.25;46.62
64095;BME280;50353;51.420;5.682;2023-02-26T14:38:22;102225.91;;;5.39;46.11
64095;BME280;50353;51.420;5.682;2023-02-26T14:40:53;102225.75;;;5.50;45.61
64095;BME280;50353;51.420;5.682;2023-02-26T14:43:35;102229.16;;;4.99;46.42
64095;BME280;50353;51.420;5.682;2023-02-26T14:46:03;102230.41;;;5.31;46.09
64095;BME280;50353;51.420;5.682;2023-02-26T14:48:30;102221.38;;;5.49;46.50
64095;BME280;50353;51.420;5.682;2023-02-26T14:54:17;102216.50;;;5.29;46.16
64095;BME280;50353;51.420;5.682;2023-02-26T14:57:02;102218.88;;;5.43;46.12
64095;BME280;50353;51.420;5.682;2023-02-26T14:59:49;102225.22;;;5.28;46.39
64095;BME280;50353;51.420;5.682;2023-02-26T15:02:27;102217.44;;;5.25;45.63
64095;BME280;50353;51.420;5.682;2023-02-26T15:05:18;102223.56;;;5.22;46.58
64095;BME280;50353;51.420;5.682;2023-02-26T15:16:18;102226.03;;;5.33;46.52
64095;BME280;50353;51.420;5.682;2023-02-26T15:19:05;102229.56;;;5.31;48.57
64095;BME280;50353;51.420;5.682;2023-02-26T15:22:10;102236.47;;;5.36;46.79
64095;BME280;50353;51.420;5.682;2023-02-26T15:24:40;102229.19;;;5.54;48.77
64095;BME280;50353;51.420;5.682;2023-02-26T15:27:07;102239.22;;;5.27;47.00
64095;BME280;50353;51.420;5.682;2023-02-26T15:29:36;102223.75;;;5.12;46.85